SBCT/CWB METAR and TAF weather

Enter ICAO airport designator
Station Type Date Time Source
SBCT METAR 2019/08/25 15:00 UTC NOAA

SBCT 251500Z 09010KT 9999 BKN025 14/08 Q1029


Station Type Date Time Source
SBCT Decoded METAR 2019/08/25 15:00 UTC NOAA

Station name not available
Aug 25, 2019 - 11:00 AM EDT / 2019.08.25 1500 UTC
Wind: from the E (090 degrees) at 12 MPH (10 KT):0
Visibility: greater than 7 mile(s):0
Sky conditions: mostly cloudy
Temperature: 57 F (14 C)
Dew Point: 46 F (8 C)
Relative Humidity: 67%
Pressure (altimeter): 30.39 in. Hg (1029 hPa)
ob: SBCT 251500Z 09010KT 9999 BKN025 14/08 Q1029
cycle: 15

Station Type Date Time Source
SBCT TAF 2019/08/25 12:54 UTC NOAA

TAF SBCT 250915Z 2512/2612 09008KT 9999 BKN012 TX16/2518Z TN09/2609Z
BECMG 2513/2515 BKN020
BECMG 2516/2518 SCT030
BECMG 2519/2521 SCT015
BECMG 2522/2524 9000 BKN007 PROB40
TEMPO 2600/2610 3000 BR BKN004 OVC007
BECMG 2610/2612 9999 NSW BKN010
RMK PDW

Example: see airport list